Time;durP1;ratioP1;P1;durP2;ratioP2;P2;SDS_P1;SDS_P2;PMS_P1;PMS_P2;Temp;Humidity;BMP_temperature;BMP_pressure;BME280_temperature;BME280_humidity;BME280_pressure;Samples;Min_cycle;Max_cycle;Signal;HPM_P1;HPM_P2
2022/10/29 00:02:04;;;;;;;16.63;6.17;;;12.30;99.90;;;13.22;100.00;98815.31;5062590;28;20507;-88
2022/10/29 00:04:34;;;;;;;19.60;5.67;;;12.40;99.90;;;13.23;100.00;98816.91;5055908;28;20946;-87
2022/10/29 00:07:03;;;;;;;17.83;6.40;;;12.40;99.90;;;13.19;100.00;98819.09;5059132;28;20495;-88
2022/10/29 00:09:34;;;;;;;14.33;5.80;;;12.30;99.90;;;13.17;100.00;98815.84;5057543;28;20557;-88
2022/10/29 00:12:04;;;;;;;16.53;5.93;;;12.30;99.90;;;13.17;100.00;98823.72;5056755;28;20531;-88
2022/10/29 00:14:34;;;;;;;8.97;5.30;;;12.20;99.90;;;13.13;100.00;98819.84;5056051;28;20571;-86
2022/10/29 00:17:03;;;;;;;11.83;5.20;;;12.20;99.90;;;13.06;100.00;98827.59;5063351;28;20761;-87
2022/10/29 00:19:33;;;;;;;20.57;6.57;;;12.10;99.90;;;13.03;100.00;98819.28;5056612;28;20534;-87
2022/10/29 00:22:03;;;;;;;16.20;5.03;;;12.10;99.90;;;13.05;100.00;98827.81;5055608;28;20524;-86
2022/10/29 00:24:40;;;;;;;15.60;5.67;;;12.10;99.90;;;13.04;100.00;98828.78;5057590;28;20976;-87
2022/10/29 00:27:23;;;;;;;27.47;6.10;;;12.10;99.90;;;12.96;100.00;98828.88;5058587;28;20492;-87
2022/10/29 00:29:53;;;;;;;16.53;5.70;;;12.00;99.90;;;12.97;100.00;98835.78;5062497;28;20477;-88
2022/10/29 00:32:22;;;;;;;15.53;5.60;;;12.00;99.90;;;12.92;100.00;98833.69;5058346;28;20507;-87
2022/10/29 00:34:50;;;;;;;20.40;5.70;;;12.00;99.90;;;12.89;100.00;98839.31;5058862;28;20465;-86
2022/10/29 00:37:19;;;;;;;16.07;5.30;;;11.90;99.90;;;12.94;100.00;98830.88;5059188;28;20453;-88
2022/10/29 00:39:50;;;;;;;17.40;5.93;;;12.00;99.90;;;12.96;100.00;98834.97;5090099;28;20456;-86
2022/10/29 00:42:24;;;;;;;14.50;6.10;;;12.00;99.90;;;12.94;100.00;98829.09;5057874;28;20842;-87
2022/10/29 00:44:53;;;;;;;27.83;6.30;;;12.00;99.90;;;12.94;100.00;98830.88;5061111;28;20460;-87
2022/10/29 00:47:26;;;;;;;12.03;5.23;;;12.00;99.90;;;12.88;100.00;98831.59;5055778;28;20528;-87
2022/10/29 00:50:04;;;;;;;12.63;4.70;;;11.90;99.90;;;12.85;100.00;98821.47;5054602;28;20469;-87
2022/10/29 00:52:44;;;;;;;14.73;5.33;;;11.90;99.90;;;12.87;100.00;98822.13;5057517;28;20848;-88
2022/10/29 00:55:16;;;;;;;24.07;5.33;;;12.00;99.90;;;12.86;100.00;98818.66;5056841;28;20935;-88
2022/10/29 00:57:52;;;;;;;18.20;4.70;;;12.00;99.90;;;12.81;100.00;98813.13;5054967;28;20470;-86
2022/10/29 01:00:22;;;;;;;28.77;6.10;;;11.90;99.90;;;12.84;100.00;98814.59;5053978;28;20478;-87
2022/10/29 01:02:51;;;;;;;16.70;5.77;;;12.00;99.90;;;12.82;100.00;98813.97;5063047;28;20551;-86
2022/10/29 01:05:25;;;;;;;8.80;5.00;;;11.90;99.90;;;12.82;100.00;98803.47;5056359;28;20478;-87
2022/10/29 01:07:55;;;;;;;15.53;5.40;;;11.90;99.90;;;12.79;100.00;98803.81;5055619;28;20526;-86
2022/10/29 01:10:43;;;;;;;12.97;5.47;;;11.80;99.90;;;12.75;100.00;98813.88;5057486;28;21066;-88
2022/10/29 01:13:47;;;;;;;20.90;4.90;;;11.80;99.90;;;12.65;100.00;98804.66;5057042;28;20579;-87
2022/10/29 01:16:31;;;;;;;10.20;5.40;;;11.70;99.90;;;12.56;100.00;98801.31;5054462;28;20556;-88
2022/10/29 01:19:13;;;;;;;19.30;5.40;;;11.60;99.90;;;12.57;100.00;98798.50;5054273;28;20592;-87
2022/10/29 01:21:45;;;;;;;11.93;5.03;;;11.60;99.90;;;12.60;100.00;98805.19;5054127;28;20557;-88
2022/10/29 01:24:59;;;;;;;10.83;5.30;;;11.60;99.90;;;12.56;100.00;98804.72;5055950;28;20551;-86
2022/10/29 01:28:07;;;;;;;12.53;5.83;;;11.60;99.90;;;12.52;100.00;98800.03;5087194;28;20996;-87
2022/10/29 01:31:06;;;;;;;18.33;5.90;;;11.50;99.90;;;12.54;100.00;98792.78;5060709;28;20472;-87
2022/10/29 01:33:48;;;;;;;8.60;5.50;;;11.60;99.90;;;12.51;100.00;98795.78;5057091;28;20519;-87
2022/10/29 01:36:28;;;;;;;11.33;5.33;;;11.60;99.90;;;12.51;100.00;98804.47;5069129;28;20515;-87
2022/10/29 01:39:07;;;;;;;13.10;4.80;;;11.60;99.90;;;12.54;100.00;98788.38;5041471;28;20457;-88
2022/10/29 01:41:52;;;;;;;7.50;4.60;;;11.60;99.90;;;12.56;100.00;98788.19;5056877;28;20462;-87
2022/10/29 01:44:33;;;;;;;14.77;4.90;;;11.60;99.90;;;12.53;100.00;98786.72;5059128;28;20468;-87
2022/10/29 01:47:14;;;;;;;21.20;5.70;;;11.60;99.90;;;12.50;100.00;98792.34;5057503;28;20629;-87
2022/10/29 01:49:48;;;;;;;12.20;5.60;;;11.60;99.90;;;12.53;100.00;98791.16;5059648;28;20468;-89
2022/10/29 01:52:23;;;;;;;15.00;5.17;;;11.60;99.90;;;12.54;100.00;98792.78;5062667;28;20582;-87
2022/10/29 01:54:53;;;;;;;11.83;5.00;;;11.60;99.90;;;12.47;100.00;98792.69;5057671;28;20588;-87
2022/10/29 01:57:31;;;;;;;12.10;5.37;;;11.50;99.90;;;12.49;100.00;98795.97;5065217;28;20496;-87
2022/10/29 02:00:10;;;;;;;20.10;5.47;;;11.50;99.90;;;12.51;100.00;98787.91;5053491;28;20514;-87
2022/10/29 02:03:01;;;;;;;16.90;5.60;;;11.60;99.90;;;12.51;100.00;98788.72;5056926;28;20549;-86
2022/10/29 02:05:41;;;;;;;9.03;4.77;;;11.70;99.90;;;12.52;100.00;98784.31;5058215;28;21282;-87
2022/10/29 02:08:26;;;;;;;14.17;5.27;;;11.70;99.90;;;12.51;100.00;98783.47;5059849;28;20491;-88
2022/10/29 02:11:03;;;;;;;17.93;6.10;;;11.60;99.90;;;12.50;100.00;98791.53;5057047;28;20536;-86
2022/10/29 02:13:40;;;;;;;33.13;5.40;;;11.60;99.90;;;12.42;100.00;98787.19;5059156;28;20488;-87
2022/10/29 02:16:18;;;;;;;21.43;5.77;;;11.50;99.90;;;12.41;100.00;98793.44;5059918;28;20987;-87
2022/10/29 02:18:49;;;;;;;18.67;5.70;;;11.50;99.90;;;12.44;100.00;98802.75;5060209;28;20563;-87
2022/10/29 02:21:21;;;;;;;17.20;5.23;;;11.50;99.90;;;12.46;100.00;98798.94;5061086;28;21140;-87
2022/10/29 02:23:57;;;;;;;8.20;5.17;;;11.60;99.90;;;12.46;100.00;98792.91;5058096;28;20564;-87
2022/10/29 02:26:28;;;;;;;9.97;5.20;;;11.60;99.90;;;12.47;100.00;98792.69;5057415;28;20468;-88
2022/10/29 02:29:00;;;;;;;14.80;5.80;;;11.60;99.90;;;12.46;100.00;98785.81;5058204;28;20530;-87
2022/10/29 02:31:30;;;;;;;13.10;5.33;;;11.60;99.90;;;12.44;100.00;98787.00;5059182;28;20972;-87
2022/10/29 02:34:02;;;;;;;18.20;5.30;;;11.50;99.90;;;12.42;100.00;98789.81;5061201;28;20450;-88
2022/10/29 02:36:32;;;;;;;16.93;5.00;;;11.50;99.90;;;12.43;100.00;98786.19;5060371;28;20543;-87
2022/10/29 02:39:03;;;;;;;17.80;5.67;;;11.50;99.90;;;12.44;100.00;98768.63;5061779;28;20491;-87
2022/10/29 02:41:36;;;;;;;16.60;5.60;;;11.50;99.90;;;12.46;100.00;98774.53;5057708;28;20476;-88
2022/10/29 02:44:09;;;;;;;18.00;6.60;;;11.60;99.90;;;12.46;100.00;98779.78;5089806;28;20486;-87
2022/10/29 02:46:39;;;;;;;18.20;5.00;;;11.60;99.90;;;12.43;100.00;98780.94;5056763;28;20526;-87
2022/10/29 02:49:11;;;;;;;9.87;4.80;;;11.60;99.90;;;12.46;100.00;98772.69;5060758;28;20512;-86
2022/10/29 02:51:40;;;;;;;6.00;4.80;;;11.60;99.90;;;12.47;100.00;98774.34;5058842;28;20488;-86
2022/10/29 02:54:10;;;;;;;17.70;5.03;;;11.60;99.90;;;12.49;100.00;98775.00;5061285;28;20543;-86
2022/10/29 02:56:42;;;;;;;14.93;5.10;;;11.60;99.90;;;12.47;100.00;98769.09;5087122;28;20840;-87
2022/10/29 02:59:11;;;;;;;20.67;5.90;;;11.60;99.90;;;12.43;100.00;98765.19;5051291;28;20554;-87
2022/10/29 03:01:42;;;;;;;11.77;5.57;;;11.50;99.90;;;12.41;100.00;98767.19;5056207;28;20542;-87
2022/10/29 03:04:14;;;;;;;16.13;5.73;;;11.50;99.90;;;12.39;100.00;98771.78;5059553;28;20982;-87
2022/10/29 03:06:43;;;;;;;12.93;4.60;;;11.50;99.90;;;12.40;100.00;98765.56;5058088;28;21300;-88
2022/10/29 03:09:16;;;;;;;15.80;6.10;;;11.50;99.90;;;12.42;100.00;98774.09;5056875;28;20956;-82
2022/10/29 03:11:45;;;;;;;15.20;5.23;;;11.50;99.90;;;12.41;100.00;98764.56;5089017;28;20466;-88
2022/10/29 03:14:15;;;;;;;6.17;4.40;;;11.50;99.90;;;12.43;100.00;98765.19;5043660;28;20489;-88
2022/10/29 03:16:43;;;;;;;17.50;6.03;;;11.50;99.90;;;12.42;100.00;98760.97;5057547;28;20515;-87
2022/10/29 03:19:14;;;;;;;10.63;5.47;;;11.50;99.90;;;12.42;100.00;98758.34;5056913;28;20495;-88
2022/10/29 03:21:43;;;;;;;22.13;7.00;;;11.50;99.90;;;12.43;100.00;98753.88;5059761;28;20490;-87
2022/10/29 03:24:12;;;;;;;14.47;4.90;;;11.60;99.90;;;12.43;100.00;98754.72;5062610;28;20567;-84
2022/10/29 03:26:42;;;;;;;11.23;5.00;;;11.60;99.90;;;12.45;100.00;98752.72;5061968;28;20484;-87
2022/10/29 03:29:17;;;;;;;14.27;5.30;;;11.60;99.90;;;12.44;100.00;98755.53;5053389;28;20509;-88
2022/10/29 03:31:48;;;;;;;18.97;5.17;;;11.60;99.90;;;12.44;100.00;98760.78;5057614;28;21902;-86
2022/10/29 03:34:23;;;;;;;13.37;5.70;;;11.60;99.90;;;12.45;100.00;98747.50;5058030;28;20476;-86
2022/10/29 03:36:52;;;;;;;23.03;4.50;;;11.60;99.90;;;12.48;100.00;98747.13;5060092;28;20469;-86
2022/10/29 03:39:24;;;;;;;34.27;5.20;;;11.60;99.90;;;12.49;100.00;98742.69;5059202;28;20531;-86
2022/10/29 03:41:53;;;;;;;15.70;5.67;;;11.60;99.90;;;12.48;100.00;98747.13;5056498;28;20580;-83
2022/10/29 03:44:25;;;;;;;18.30;5.03;;;11.60;99.90;;;12.48;100.00;98751.56;5058197;28;20531;-88
2022/10/29 03:46:54;;;;;;;14.90;5.20;;;11.60;99.90;;;12.46;100.00;98756.19;5056628;28;21370;-86
2022/10/29 03:49:25;;;;;;;23.07;6.50;;;11.60;99.90;;;12.49;100.00;98743.50;5059325;28;20496;-86
2022/10/29 03:51:56;;;;;;;15.70;4.40;;;11.70;99.90;;;12.53;100.00;98750.00;5065027;28;20559;-87
2022/10/29 03:54:30;;;;;;;18.03;5.40;;;11.80;99.90;;;12.53;100.00;98749.19;5058685;28;20443;-87
2022/10/29 03:56:59;;;;;;;11.67;5.80;;;11.80;99.90;;;12.53;100.00;98739.50;5056636;28;20441;-85
2022/10/29 03:59:31;;;;;;;13.30;6.07;;;11.70;99.90;;;12.54;100.00;98740.31;5087516;28;20533;-85
2022/10/29 04:02:00;;;;;;;13.10;4.73;;;11.80;99.90;;;12.53;100.00;98746.56;5053934;28;20983;-85
2022/10/29 04:04:31;;;;;;;16.00;4.90;;;11.80;99.90;;;12.53;100.00;98736.88;5054907;28;20453;-85
2022/10/29 04:07:00;;;;;;;8.80;4.40;;;11.70;99.90;;;12.55;100.00;98739.34;5056189;28;20543;-86
2022/10/29 04:09:29;;;;;;;14.07;5.30;;;11.80;99.90;;;12.57;100.00;98742.56;5055256;28;20492;-86
2022/10/29 04:12:01;;;;;;;13.23;5.77;;;11.80;99.90;;;12.57;100.00;98742.56;5059875;28;20545;-85
2022/10/29 04:14:32;;;;;;;18.00;5.00;;;11.80;99.90;;;12.56;100.00;98739.13;5048291;28;20519;-86
2022/10/29 04:17:01;;;;;;;19.83;6.10;;;11.70;99.90;;;12.56;100.00;98744.38;5063517;28;20448;-85
2022/10/29 04:19:32;;;;;;;11.53;4.80;;;11.70;99.90;;;12.56;100.00;98739.13;5057787;28;20477;-82
2022/10/29 04:22:04;;;;;;;11.63;5.73;;;11.80;99.90;;;12.57;100.00;98740.78;5088393;28;20471;-88
2022/10/29 04:24:54;;;;;;;33.07;6.23;;;11.80;99.90;;;12.57;100.00;98746.03;5058156;28;20857;-89
2022/10/29 04:27:48;;;;;;;13.30;5.00;;;11.70;99.90;;;12.59;100.00;98743.22;5058463;28;21439;-88
2022/10/29 04:30:37;;;;;;;19.50;5.70;;;11.80;99.90;;;12.59;100.00;98738.78;5060716;28;20444;-87
2022/10/29 04:33:10;;;;;;;16.50;5.17;;;11.80;99.90;;;12.59;100.00;98741.41;5058648;28;20456;-87
2022/10/29 04:35:43;;;;;;;10.57;4.67;;;11.80;99.90;;;12.58;100.00;98742.41;5066796;28;20434;-89
2022/10/29 04:38:14;;;;;;;12.60;5.30;;;11.80;99.90;;;12.55;100.00;98742.78;5058541;28;20484;-89
2022/10/29 04:40:44;;;;;;;13.80;6.70;;;11.70;99.90;;;12.54;100.00;98741.13;5062002;28;20984;-90
2022/10/29 04:43:17;;;;;;;22.20;5.07;;;11.70;99.90;;;12.57;100.00;98740.78;5064220;28;20455;-89
2022/10/29 04:45:52;;;;;;;21.57;5.47;;;11.80;99.90;;;12.57;100.00;98745.19;5063469;28;20461;-89
2022/10/29 04:48:27;;;;;;;9.77;5.20;;;11.70;99.90;;;12.58;100.00;98741.59;5061750;28;20453;-90
2022/10/29 04:50:57;;;;;;;12.67;4.30;;;11.80;99.90;;;12.58;100.00;98731.91;5063226;28;20444;-89
2022/10/29 04:53:29;;;;;;;22.57;5.10;;;11.80;99.90;;;12.57;100.00;98740.78;5060026;28;20452;-90
2022/10/29 04:56:04;;;;;;;16.03;6.00;;;11.70;99.90;;;12.56;100.00;98744.38;5047297;28;20524;-88
2022/10/29 04:58:37;;;;;;;20.10;6.17;;;11.80;99.90;;;12.55;100.00;98736.72;5062038;28;20813;-90
2022/10/29 05:01:12;;;;;;;19.23;5.63;;;11.70;99.90;;;12.53;100.00;98736.88;5061452;28;20449;-89
2022/10/29 05:03:41;;;;;;;18.10;6.00;;;11.70;99.90;;;12.50;100.00;98736.44;5060778;28;20463;-88
2022/10/29 05:06:14;;;;;;;17.13;5.50;;;11.60;99.90;;;12.49;100.00;98735.63;5059625;28;20548;-90
2022/10/29 05:08:43;;;;;;;11.73;4.70;;;11.60;99.90;;;12.44;100.00;98729.28;5059201;28;20591;-90
2022/10/29 05:11:14;;;;;;;15.63;5.00;;;11.60;99.90;;;12.44;100.00;98730.09;5090662;28;21230;-90
2022/10/29 05:13:44;;;;;;;15.53;4.67;;;11.60;99.90;;;12.43;100.00;98723.22;5060459;28;20510;-90
2022/10/29 05:16:13;;;;;;;22.00;5.17;;;11.60;99.90;;;12.45;100.00;98731.75;5061586;28;20452;-90
2022/10/29 05:18:44;;;;;;;13.67;4.60;;;11.60;99.90;;;12.41;100.00;98733.09;5064942;28;20467;-90
2022/10/29 05:21:15;;;;;;;8.70;5.47;;;11.50;99.90;;;12.39;100.00;98732.44;5064850;28;20464;-89
2022/10/29 05:23:46;;;;;;;16.63;5.80;;;11.50;99.90;;;12.40;100.00;98722.78;5061211;28;20908;-89
2022/10/29 05:26:15;;;;;;;21.87;5.10;;;11.50;99.90;;;12.38;100.00;98725.59;5063496;28;20517;-90
2022/10/29 05:28:45;;;;;;;18.63;5.37;;;11.50;99.90;;;12.34;100.00;98729.56;5064370;28;20452;-89
2022/10/29 05:31:15;;;;;;;11.33;4.60;;;11.40;99.90;;;12.38;100.00;98730.84;5064097;28;20953;-89
2022/10/29 05:33:48;;;;;;;16.03;4.33;;;11.50;99.90;;;12.38;100.00;98725.59;5063500;28;21152;-90
2022/10/29 05:36:32;;;;;;;21.50;5.43;;;11.50;99.90;;;12.36;100.00;98729.38;5068980;28;20510;-90
2022/10/29 05:39:02;;;;;;;17.03;6.00;;;11.40;99.90;;;12.36;100.00;98732.81;5065068;28;20487;-89
2022/10/29 05:41:34;;;;;;;14.83;4.67;;;11.50;99.90;;;12.36;100.00;98729.38;5062991;28;20460;-90
2022/10/29 05:44:05;;;;;;;21.93;6.17;;;11.40;99.90;;;12.35;100.00;98728.59;5069460;28;21097;-88
2022/10/29 05:46:35;;;;;;;15.77;4.87;;;11.40;99.90;;;12.34;100.00;98724.31;5061479;28;20534;-90
2022/10/29 05:49:06;;;;;;;10.70;5.60;;;11.40;99.90;;;12.34;100.00;98732.19;5061675;28;20521;-89
2022/10/29 05:51:36;;;;;;;7.23;4.13;;;11.40;99.90;;;12.35;100.00;98733.84;5064117;28;20499;-88
2022/10/29 05:54:07;;;;;;;17.13;4.50;;;11.40;99.90;;;12.38;100.00;98736.09;5059031;28;20448;-90
2022/10/29 05:56:36;;;;;;;17.83;4.93;;;11.50;99.90;;;12.38;100.00;98738.72;5060259;28;20547;-90
2022/10/29 05:59:05;;;;;;;26.27;5.60;;;11.50;99.90;;;12.38;100.00;98736.09;5064937;28;20564;-90
2022/10/29 06:01:38;;;;;;;9.00;4.60;;;11.50;99.90;;;12.41;100.00;98734.91;5062075;28;20444;-90
2022/10/29 06:04:07;;;;;;;17.70;5.40;;;11.50;99.90;;;12.42;100.00;98741.78;5070671;28;20891;-90
2022/10/29 06:06:40;;;;;;;20.00;4.40;;;11.60;99.90;;;12.41;100.00;98738.34;5095085;27;20504;-89
2022/10/29 06:09:10;;;;;;;17.63;4.60;;;11.60;99.90;;;12.44;100.00;98750.28;5067232;28;20560;-90
2022/10/29 06:11:39;;;;;;;11.40;5.00;;;11.60;99.90;;;12.42;100.00;98741.78;5064899;28;20499;-89
2022/10/29 06:14:11;;;;;;;11.50;4.20;;;11.50;99.90;;;12.43;100.00;98754.72;5063061;28;20963;-88
2022/10/29 06:16:43;;;;;;;11.83;5.27;;;11.60;99.90;;;12.44;100.00;98748.47;5077240;28;20441;-89
2022/10/29 06:19:16;;;;;;;12.80;4.93;;;11.60;99.90;;;12.45;100.00;98746.66;5094873;28;20503;-89
2022/10/29 06:21:49;;;;;;;31.70;4.93;;;11.60;99.90;;;12.44;100.00;98735.34;5063662;28;20575;-90
2022/10/29 06:24:25;;;;;;;23.20;5.57;;;11.60;99.90;;;12.46;100.00;98738.59;5062965;28;20465;-90
2022/10/29 06:26:55;;;;;;;24.10;5.20;;;11.70;99.90;;;12.43;100.00;98736.34;5064451;28;20442;-89
2022/10/29 06:29:24;;;;;;;9.43;5.40;;;11.60;99.90;;;12.44;100.00;98745.84;5066992;28;20491;-89
2022/10/29 06:31:54;;;;;;;12.67;5.00;;;11.70;99.90;;;12.42;100.00;98749.66;5061161;28;20498;-89
2022/10/29 06:34:23;;;;;;;14.00;5.03;;;11.60;99.90;;;12.44;100.00;98743.22;5052521;28;20444;-89
2022/10/29 06:36:53;;;;;;;15.50;5.20;;;11.60;99.90;;;12.45;100.00;98747.50;5067922;28;20466;-90
2022/10/29 06:39:27;;;;;;;11.57;4.50;;;11.70;99.90;;;12.48;100.00;98741.06;5065173;28;20441;-87
2022/10/29 06:41:56;;;;;;;9.10;4.53;;;11.70;99.90;;;12.46;100.00;98749.09;5063384;28;20521;-89
2022/10/29 06:44:27;;;;;;;7.83;4.43;;;11.60;99.90;;;12.48;100.00;98741.06;5064132;28;20506;-89
2022/10/29 06:46:57;;;;;;;17.23;5.67;;;11.60;99.90;;;12.48;100.00;98734.00;5063768;28;20971;-89
2022/10/29 06:49:26;;;;;;;9.30;4.47;;;11.60;99.90;;;12.48;100.00;98735.81;5066783;28;20464;-89
2022/10/29 06:51:56;;;;;;;14.63;5.10;;;11.60;99.90;;;12.49;100.00;98746.13;5069249;28;20465;-91
2022/10/29 06:54:25;;;;;;;14.63;4.70;;;11.70;99.90;;;12.52;100.00;98745.75;5066405;28;20486;-90
2022/10/29 06:56:54;;;;;;;23.63;5.03;;;11.70;99.90;;;12.54;100.00;98743.75;5064261;28;20980;-90
2022/10/29 06:59:25;;;;;;;12.27;5.33;;;11.80;99.90;;;12.56;100.00;98743.59;5061431;28;20959;-90
2022/10/29 07:01:55;;;;;;;10.33;5.50;;;11.80;99.90;;;12.58;100.00;98752.91;5066045;28;20455;-89
2022/10/29 07:04:27;;;;;;;12.00;4.80;;;11.80;99.90;;;12.60;100.00;98750.06;5052203;28;20485;-88
2022/10/29 07:07:08;;;;;;;19.00;5.60;;;11.80;99.90;;;12.63;100.00;98754.16;5061766;28;20453;-88
2022/10/29 07:09:41;;;;;;;15.83;6.10;;;11.80;99.90;;;12.66;100.00;98751.19;5064646;28;20816;-87
2022/10/29 07:12:14;;;;;;;26.30;5.43;;;11.90;99.90;;;12.68;100.00;98751.78;5066897;28;20552;-88
2022/10/29 07:14:45;;;;;;;12.90;4.70;;;11.90;99.90;;;12.69;100.00;98758.69;5067927;28;20920;-88
2022/10/29 07:17:14;;;;;;;10.60;4.80;;;11.90;99.90;;;12.69;100.00;98761.31;5060954;28;20808;-88
2022/10/29 07:19:43;;;;;;;18.40;5.13;;;11.90;99.90;;;12.71;100.00;98759.31;5093479;27;20456;-88
2022/10/29 07:22:14;;;;;;;12.00;5.00;;;11.90;99.90;;;12.72;100.00;98758.31;5061645;28;20836;-89
2022/10/29 07:24:43;;;;;;;9.53;5.00;;;12.00;99.90;;;12.74;100.00;98770.25;5061471;28;20457;-88
2022/10/29 07:27:12;;;;;;;15.77;4.83;;;12.00;99.90;;;12.76;100.00;98764.81;5058586;28;20524;-87
2022/10/29 07:29:43;;;;;;;16.80;5.43;;;12.00;99.90;;;12.78;100.00;98762.81;5089764;27;20586;-87
2022/10/29 07:32:12;;;;;;;12.40;5.27;;;12.00;99.90;;;12.80;100.00;98761.66;5073167;28;20467;-86
2022/10/29 07:34:43;;;;;;;13.07;5.10;;;12.10;99.90;;;12.81;100.00;98754.56;5057567;28;20491;-87
2022/10/29 07:37:14;;;;;;;10.63;4.43;;;12.10;99.90;;;12.83;100.00;98763.09;5058948;28;20543;-86
2022/10/29 07:39:43;;;;;;;14.87;4.47;;;12.10;99.90;;;12.85;100.00;98771.59;5086355;28;20511;-86
2022/10/29 07:42:13;;;;;;;12.67;4.90;;;12.10;99.90;;;12.87;100.00;98762.56;5056579;28;20453;-87
2022/10/29 07:44:41;;;;;;;15.13;5.67;;;12.20;99.90;;;12.90;100.00;98771.88;5055819;28;20883;-87
2022/10/29 07:47:10;;;;;;;27.33;4.87;;;12.20;99.90;;;12.93;100.00;98774.94;5072082;28;20459;-87
2022/10/29 07:49:38;;;;;;;17.83;4.50;;;12.20;99.90;;;12.96;100.00;98761.44;5062005;28;20515;-87
2022/10/29 07:52:10;;;;;;;13.30;5.00;;;12.20;99.90;;;12.99;100.00;98770.75;5059234;28;20456;-86
2022/10/29 07:54:40;;;;;;;15.10;4.93;;;12.20;99.90;;;13.01;100.00;98772.22;5065588;28;20472;-86
2022/10/29 07:57:11;;;;;;;11.70;5.50;;;12.30;99.90;;;13.04;100.00;98768.41;5058661;28;20532;-87
2022/10/29 07:59:41;;;;;;;11.87;6.10;;;12.30;99.90;;;13.06;100.00;98769.03;5057978;28;20481;-86
2022/10/29 08:02:12;;;;;;;17.53;5.33;;;12.30;99.90;;;13.10;100.00;98768.50;5060155;28;20440;-87
2022/10/29 08:04:41;;;;;;;12.00;5.03;;;12.40;99.90;;;13.15;100.00;98772.41;5058365;28;20540;-86
2022/10/29 08:07:10;;;;;;;13.47;5.33;;;12.40;99.90;;;13.18;100.00;98775.47;5057112;28;20826;-87
2022/10/29 08:09:44;;;;;;;12.30;5.60;;;12.40;99.90;;;13.22;100.00;98771.47;5059433;28;20460;-87
2022/10/29 08:12:13;;;;;;;35.17;6.30;;;12.50;99.90;;;13.25;100.00;98771.09;5057948;28;20954;-86
2022/10/29 08:14:44;;;;;;;12.00;5.30;;;12.50;99.90;;;13.30;100.00;98773.97;5065785;28;20449;-86
2022/10/29 08:17:12;;;;;;;17.87;5.33;;;12.60;99.90;;;13.33;100.00;98772.81;5058433;28;20527;-87
2022/10/29 08:19:41;;;;;;;17.30;5.27;;;12.60;99.90;;;13.37;100.00;98774.84;5064621;28;20489;-86
2022/10/29 08:22:09;;;;;;;11.23;5.33;;;12.60;99.90;;;13.40;100.00;98784.97;5058003;28;20464;-86
2022/10/29 08:24:40;;;;;;;19.73;6.37;;;12.70;99.90;;;13.44;100.00;98773.09;5092264;27;20485;-87
2022/10/29 08:27:11;;;;;;;16.07;6.10;;;12.70;99.90;;;13.48;100.00;98777.00;5058057;28;20527;-86
2022/10/29 08:29:44;;;;;;;10.60;4.80;;;12.80;99.90;;;13.53;100.00;98784.31;5057463;28;20445;-87
2022/10/29 08:32:15;;;;;;;20.13;5.80;;;12.80;99.90;;;13.56;100.00;98771.63;5057238;28;21052;-86
2022/10/29 08:34:43;;;;;;;15.43;5.70;;;12.90;99.90;;;13.59;100.00;98768.63;5057365;28;20522;-87
2022/10/29 08:37:12;;;;;;;19.53;4.87;;;12.90;99.90;;;13.64;100.00;98767.25;5057417;28;21055;-86
2022/10/29 08:39:44;;;;;;;15.20;5.77;;;13.00;99.90;;;13.67;100.00;98769.50;5064177;28;20468;-87
2022/10/29 08:42:33;;;;;;;10.87;5.30;;;13.00;99.90;;;13.71;100.00;98770.75;5057065;28;20537;-86
2022/10/29 08:45:24;;;;;;;13.07;5.87;;;13.00;99.90;;;13.75;100.00;98761.44;5057355;28;20481;-87
2022/10/29 08:48:28;;;;;;;24.33;5.60;;;13.10;99.90;;;13.80;100.00;98766.97;5057441;28;20504;-86
2022/10/29 08:51:10;;;;;;;13.60;5.27;;;13.10;99.90;;;13.84;100.00;98776.91;5055010;28;21098;-87
2022/10/29 08:53:46;;;;;;;17.73;5.27;;;13.20;99.90;;;13.89;100.00;98768.44;5087194;28;21015;-86
2022/10/29 08:56:42;;;;;;;16.53;5.43;;;13.30;99.90;;;13.94;100.00;98769.53;5058380;28;20828;-87
2022/10/29 08:59:16;;;;;;;12.83;5.67;;;13.30;99.90;;;13.98;100.00;98770.78;5056974;28;20504;-87
2022/10/29 09:01:47;;;;;;;13.10;5.53;;;13.40;99.90;;;14.02;100.00;98771.19;5059728;28;20469;-87
2022/10/29 09:04:30;;;;;;;21.70;5.87;;;13.40;99.90;;;14.07;100.00;98774.06;5062401;28;20456;-87
2022/10/29 09:07:27;;;;;;;12.00;5.83;;;13.40;99.90;;;14.13;100.00;98775.91;5058151;28;20491;-88
2022/10/29 09:10:04;;;;;;;11.70;5.50;;;13.50;99.90;;;14.20;100.00;98765.44;5060247;28;20452;-87
2022/10/29 09:13:03;;;;;;;15.77;6.77;;;13.60;99.90;;;14.25;100.00;98763.88;5060015;28;20550;-85
2022/10/29 09:16:01;;;;;;;18.03;6.40;;;13.60;99.90;;;14.33;100.00;98761.09;5056888;28;20481;-85
2022/10/29 09:18:52;;;;;;;18.63;6.23;;;13.70;99.90;;;14.41;100.00;98763.59;5059796;28;20969;-85
2022/10/29 09:21:34;;;;;;;20.13;5.80;;;13.80;99.90;;;14.50;100.00;98756.38;5057654;28;20469;-85
2022/10/29 09:24:14;;;;;;;14.63;6.07;;;13.90;99.90;;;14.58;100.00;98754.38;5088630;28;20469;-85
2022/10/29 09:26:58;;;;;;;23.40;5.43;;;14.00;99.90;;;14.66;100.00;98755.22;5058813;28;20513;-85
2022/10/29 09:29:56;;;;;;;15.40;6.30;;;14.10;99.90;;;14.75;100.00;98756.69;5059170;28;20888;-85
2022/10/29 09:32:33;;;;;;;15.03;5.37;;;14.20;99.90;;;14.83;100.00;98757.31;5058507;28;20514;-84
2022/10/29 09:35:10;;;;;;;17.03;7.00;;;14.30;99.90;;;14.92;100.00;98760.63;5060613;28;20516;-85
2022/10/29 09:37:52;;;;;;;12.23;5.53;;;14.40;99.90;;;15.00;100.00;98741.97;5057387;28;20459;-85
2022/10/29 09:40:33;;;;;;;16.40;5.93;;;14.50;99.90;;;15.09;100.00;98740.81;5064113;28;20440;-85
2022/10/29 09:43:19;;;;;;;19.77;6.57;;;14.60;99.90;;;15.18;100.00;98742.25;5057911;28;20543;-85
2022/10/29 09:46:08;;;;;;;11.50;6.00;;;14.80;99.90;;;15.26;100.00;98733.34;5056241;28;20479;-85
2022/10/29 09:48:53;;;;;;;23.30;5.63;;;14.90;99.90;;;15.33;100.00;98727.09;5057039;28;21085;-85
2022/10/29 09:51:37;;;;;;;9.63;5.50;;;15.00;99.90;;;15.43;100.00;98727.50;5057126;28;20500;-85
2022/10/29 09:54:07;;;;;;;19.37;5.53;;;15.10;99.90;;;15.50;100.00;98731.00;5057400;28;20477;-85
2022/10/29 09:56:40;;;;;;;16.33;6.37;;;15.20;99.90;;;15.56;100.00;98724.91;5058259;28;20447;-85
2022/10/29 09:59:27;;;;;;;17.13;5.47;;;15.30;99.90;;;15.65;100.00;98722.06;5057685;28;20468;-86
2022/10/29 10:01:58;;;;;;;11.83;4.53;;;15.30;99.90;;;15.72;100.00;98721.06;5083115;28;21019;-85
2022/10/29 10:04:40;;;;;;;8.60;5.00;;;15.40;99.90;;;15.81;100.00;98716.38;5056818;28;20951;-85
2022/10/29 10:07:17;;;;;;;10.07;4.43;;;15.50;99.90;;;15.85;100.00;98709.69;5057059;28;20562;-85
2022/10/29 10:09:56;;;;;;;18.87;5.00;;;15.60;99.90;;;15.92;100.00;98702.59;5058966;28;20886;-85
2022/10/29 10:12:43;;;;;;;18.97;5.13;;;15.60;99.90;;;16.03;100.00;98699.34;5060618;28;20472;-85
2022/10/29 10:15:32;;;;;;;12.47;4.93;;;15.70;99.90;;;16.11;100.00;98696.44;5061471;28;20444;-87
2022/10/29 10:18:06;;;;;;;9.93;4.73;;;15.80;99.90;;;16.16;100.00;98691.38;5060610;28;20986;-87
2022/10/29 10:20:44;;;;;;;12.57;4.33;;;15.90;99.90;;;16.21;100.00;98690.78;5062364;28;20468;-87
2022/10/29 10:23:26;;;;;;;10.10;3.90;;;15.90;99.90;;;16.25;100.00;98690.13;5062758;28;20452;-87
2022/10/29 10:25:57;;;;;;;12.23;4.73;;;16.00;99.90;;;16.33;100.00;98681.19;5062384;28;20545;-87
2022/10/29 10:28:34;;;;;;;9.00;3.57;;;16.10;99.90;;;16.39;100.00;98678.53;5059241;28;20980;-87
2022/10/29 10:31:15;;;;;;;10.20;3.97;;;16.10;99.90;;;16.43;100.00;98682.38;5062293;28;20452;-87
2022/10/29 10:33:55;;;;;;;14.90;5.40;;;16.20;99.90;;;16.48;100.00;98674.66;5061507;28;21040;-87
2022/10/29 10:36:33;;;;;;;16.77;4.00;;;16.20;99.90;;;16.54;100.00;98671.16;5067046;28;20519;-88
2022/10/29 10:39:05;;;;;;;8.27;3.60;;;16.30;99.90;;;16.59;100.00;98670.56;5061997;28;21117;-87